sensor_id;sensor_type;location;lat;lon;timestamp;pressure;altitude;pressure_sealevel;temperature;humidity
55038;BME280;40937;53.594;10.034;2022-09-09T00:01:07;77412.28;;;-147.20;82.16
55038;BME280;40937;53.594;10.034;2022-09-09T00:03:41;77408.25;;;-147.20;82.18
55038;BME280;40937;53.594;10.034;2022-09-09T00:06:15;77406.22;;;-147.20;82.36
55038;BME280;40937;53.594;10.034;2022-09-09T00:09:01;77404.22;;;-147.20;82.66
55038;BME280;40937;53.594;10.034;2022-09-09T00:11:36;77400.16;;;-147.20;82.70
55038;BME280;40937;53.594;10.034;2022-09-09T00:14:13;77394.13;;;-147.20;82.86
55038;BME280;40937;53.594;10.034;2022-09-09T00:16:45;77398.16;;;-147.20;83.06
55038;BME280;40937;53.594;10.034;2022-09-09T00:19:20;77390.06;;;-147.20;83.09
55038;BME280;40937;53.594;10.034;2022-09-09T00:21:55;77388.06;;;-147.20;82.80
55038;BME280;40937;53.594;10.034;2022-09-09T00:24:28;77386.03;;;-147.20;82.68
55038;BME280;40937;53.594;10.034;2022-09-09T00:27:01;77384.03;;;-147.20;82.89
55038;BME280;40937;53.594;10.034;2022-09-09T00:29:35;77386.03;;;-147.20;83.30
55038;BME280;40937;53.594;10.034;2022-09-09T00:32:12;77382.00;;;-147.20;83.34
55038;BME280;40937;53.594;10.034;2022-09-09T00:34:47;77379.97;;;-147.20;83.30
55038;BME280;40937;53.594;10.034;2022-09-09T00:37:15;77371.91;;;-147.20;83.40
55038;BME280;40937;53.594;10.034;2022-09-09T00:39:44;77367.88;;;-147.20;83.22
55038;BME280;40937;53.594;10.034;2022-09-09T00:42:15;77363.84;;;-147.20;83.03
55038;BME280;40937;53.594;10.034;2022-09-09T00:44:56;77365.84;;;-147.20;83.01
55038;BME280;40937;53.594;10.034;2022-09-09T00:47:44;77359.78;;;-147.20;83.04
55038;BME280;40937;53.594;10.034;2022-09-09T00:50:22;77361.81;;;-147.20;82.63
55038;BME280;40937;53.594;10.034;2022-09-09T00:52:59;77355.75;;;-147.20;82.82
55038;BME280;40937;53.594;10.034;2022-09-09T00:55:35;77357.78;;;-147.20;82.86
55038;BME280;40937;53.594;10.034;2022-09-09T00:58:07;77357.78;;;-147.20;82.77
55038;BME280;40937;53.594;10.034;2022-09-09T01:00:40;77351.72;;;-147.20;82.92
55038;BME280;40937;53.594;10.034;2022-09-09T01:03:21;77357.78;;;-147.20;82.92
55038;BME280;40937;53.594;10.034;2022-09-09T01:05:57;77361.81;;;-147.20;83.07
55038;BME280;40937;53.594;10.034;2022-09-09T01:08:39;77365.84;;;-147.20;82.96
55038;BME280;40937;53.594;10.034;2022-09-09T01:11:14;77357.78;;;-147.20;82.71
55038;BME280;40937;53.594;10.034;2022-09-09T01:13:45;77361.81;;;-147.20;82.89
55038;BME280;40937;53.594;10.034;2022-09-09T01:16:17;77361.81;;;-147.20;82.42
55038;BME280;40937;53.594;10.034;2022-09-09T01:18:45;77355.75;;;-147.20;82.33
55038;BME280;40937;53.594;10.034;2022-09-09T01:21:18;77357.78;;;-147.20;82.00
55038;BME280;40937;53.594;10.034;2022-09-09T01:24:07;77353.75;;;-147.20;81.87
55038;BME280;40937;53.594;10.034;2022-09-09T01:26:52;77357.78;;;-147.20;81.81
55038;BME280;40937;53.594;10.034;2022-09-09T01:29:25;77355.75;;;-147.20;81.70
55038;BME280;40937;53.594;10.034;2022-09-09T01:31:54;77359.78;;;-147.20;81.73
55038;BME280;40937;53.594;10.034;2022-09-09T01:34:23;77361.81;;;-147.20;81.50
55038;BME280;40937;53.594;10.034;2022-09-09T01:36:55;77359.78;;;-147.20;81.18
55038;BME280;40937;53.594;10.034;2022-09-09T01:39:23;77369.88;;;-147.20;81.44
55038;BME280;40937;53.594;10.034;2022-09-09T01:42:01;77359.78;;;-147.20;81.07
55038;BME280;40937;53.594;10.034;2022-09-09T01:44:29;77359.78;;;-147.20;81.10
55038;BME280;40937;53.594;10.034;2022-09-09T01:46:56;77367.88;;;-147.20;81.44
55038;BME280;40937;53.594;10.034;2022-09-09T01:49:23;77365.84;;;-147.20;80.97
55038;BME280;40937;53.594;10.034;2022-09-09T01:51:52;77365.84;;;-147.20;81.10
55038;BME280;40937;53.594;10.034;2022-09-09T01:54:29;77371.91;;;-147.20;81.42
55038;BME280;40937;53.594;10.034;2022-09-09T01:57:08;77367.88;;;-147.20;81.49
55038;BME280;40937;53.594;10.034;2022-09-09T01:59:47;77373.94;;;-147.20;81.31
55038;BME280;40937;53.594;10.034;2022-09-09T02:02:18;77373.94;;;-147.20;81.22
55038;BME280;40937;53.594;10.034;2022-09-09T02:05:09;77367.88;;;-147.20;81.33
55038;BME280;40937;53.594;10.034;2022-09-09T02:07:40;77365.84;;;-147.20;81.39
55038;BME280;40937;53.594;10.034;2022-09-09T02:10:22;77377.97;;;-147.20;81.55
55038;BME280;40937;53.594;10.034;2022-09-09T02:13:09;77371.91;;;-147.20;81.49
55038;BME280;40937;53.594;10.034;2022-09-09T02:15:42;77382.00;;;-147.20;81.36
55038;BME280;40937;53.594;10.034;2022-09-09T02:18:12;77384.03;;;-147.20;81.37
55038;BME280;40937;53.594;10.034;2022-09-09T02:20:42;77392.09;;;-147.20;81.56
55038;BME280;40937;53.594;10.034;2022-09-09T02:23:11;77390.06;;;-147.20;81.54
55038;BME280;40937;53.594;10.034;2022-09-09T02:25:40;77390.06;;;-147.20;81.31
55038;BME280;40937;53.594;10.034;2022-09-09T02:28:19;77386.03;;;-147.20;81.07
55038;BME280;40937;53.594;10.034;2022-09-09T02:30:50;77386.03;;;-147.20;80.94
55038;BME280;40937;53.594;10.034;2022-09-09T02:33:24;77390.06;;;-147.20;80.92
55038;BME280;40937;53.594;10.034;2022-09-09T02:35:52;77386.03;;;-147.20;80.69
55038;BME280;40937;53.594;10.034;2022-09-09T02:38:26;77382.00;;;-147.20;80.17
55038;BME280;40937;53.594;10.034;2022-09-09T02:41:04;77392.09;;;-147.20;80.93
55038;BME280;40937;53.594;10.034;2022-09-09T02:43:34;77390.06;;;-147.20;80.78
55038;BME280;40937;53.594;10.034;2022-09-09T02:46:20;77384.03;;;-147.20;80.54
55038;BME280;40937;53.594;10.034;2022-09-09T02:48:56;77384.03;;;-147.20;80.48
55038;BME280;40937;53.594;10.034;2022-09-09T02:51:35;77386.03;;;-147.20;80.76
55038;BME280;40937;53.594;10.034;2022-09-09T02:54:10;77388.06;;;-147.20;80.73
55038;BME280;40937;53.594;10.034;2022-09-09T02:56:41;77394.13;;;-147.20;81.00
55038;BME280;40937;53.594;10.034;2022-09-09T02:59:13;77402.19;;;-147.20;81.08
55038;BME280;40937;53.594;10.034;2022-09-09T03:01:40;77402.19;;;-147.20;81.34
55038;BME280;40937;53.594;10.034;2022-09-09T03:04:08;77400.16;;;-147.20;81.17
55038;BME280;40937;53.594;10.034;2022-09-09T03:06:35;77404.22;;;-147.20;81.27
55038;BME280;40937;53.594;10.034;2022-09-09T03:09:14;77394.13;;;-147.20;80.73
55038;BME280;40937;53.594;10.034;2022-09-09T03:11:41;77404.22;;;-147.20;80.98
55038;BME280;40937;53.594;10.034;2022-09-09T03:14:08;77394.13;;;-147.20;80.75
55038;BME280;40937;53.594;10.034;2022-09-09T03:16:38;77404.22;;;-147.20;80.83
55038;BME280;40937;53.594;10.034;2022-09-09T03:19:04;77406.22;;;-147.20;80.64
55038;BME280;40937;53.594;10.034;2022-09-09T03:21:31;77408.25;;;-147.20;80.42
55038;BME280;40937;53.594;10.034;2022-09-09T03:23:59;77406.22;;;-147.20;80.60
55038;BME280;40937;53.594;10.034;2022-09-09T03:26:29;77412.28;;;-147.20;80.76
55038;BME280;40937;53.594;10.034;2022-09-09T03:28:57;77412.28;;;-147.20;80.81
55038;BME280;40937;53.594;10.034;2022-09-09T03:31:26;77412.28;;;-147.20;80.52
55038;BME280;40937;53.594;10.034;2022-09-09T03:33:57;77406.22;;;-147.20;80.59
55038;BME280;40937;53.594;10.034;2022-09-09T03:36:25;77396.13;;;-147.20;79.83
55038;BME280;40937;53.594;10.034;2022-09-09T03:38:54;77402.19;;;-147.20;79.98
55038;BME280;40937;53.594;10.034;2022-09-09T03:41:22;77406.22;;;-147.20;80.23
55038;BME280;40937;53.594;10.034;2022-09-09T03:43:50;77406.22;;;-147.20;80.17
55038;BME280;40937;53.594;10.034;2022-09-09T03:46:17;77410.25;;;-147.20;80.15
55038;BME280;40937;53.594;10.034;2022-09-09T03:48:44;77420.34;;;-147.20;80.39
55038;BME280;40937;53.594;10.034;2022-09-09T03:51:12;77434.50;;;-147.20;80.48
55038;BME280;40937;53.594;10.034;2022-09-09T03:53:40;77426.41;;;-147.20;80.14
55038;BME280;40937;53.594;10.034;2022-09-09T03:56:07;77430.47;;;-147.20;80.33
55038;BME280;40937;53.594;10.034;2022-09-09T03:58:34;77432.47;;;-147.20;80.42
55038;BME280;40937;53.594;10.034;2022-09-09T04:01:06;77432.47;;;-147.20;79.94
55038;BME280;40937;53.594;10.034;2022-09-09T04:03:35;77434.50;;;-147.20;80.16
55038;BME280;40937;53.594;10.034;2022-09-09T04:06:03;77438.53;;;-147.20;80.15
55038;BME280;40937;53.594;10.034;2022-09-09T04:08:32;77440.53;;;-147.20;79.79
55038;BME280;40937;53.594;10.034;2022-09-09T04:11:00;77442.56;;;-147.20;79.87
55038;BME280;40937;53.594;10.034;2022-09-09T04:13:31;77446.59;;;-147.20;80.03
55038;BME280;40937;53.594;10.034;2022-09-09T04:16:01;77450.63;;;-147.20;80.08
55038;BME280;40937;53.594;10.034;2022-09-09T04:18:30;77446.59;;;-147.20;79.91
55038;BME280;40937;53.594;10.034;2022-09-09T04:20:57;77450.63;;;-147.20;80.21
55038;BME280;40937;53.594;10.034;2022-09-09T04:23:27;77452.66;;;-147.20;80.03
55038;BME280;40937;53.594;10.034;2022-09-09T04:25:58;77454.69;;;-147.20;79.92
55038;BME280;40937;53.594;10.034;2022-09-09T04:28:27;77466.78;;;-147.20;79.95
55038;BME280;40937;53.594;10.034;2022-09-09T04:30:54;77462.75;;;-147.20;80.02
55038;BME280;40937;53.594;10.034;2022-09-09T04:33:23;77468.81;;;-147.20;80.21
55038;BME280;40937;53.594;10.034;2022-09-09T04:35:50;77470.84;;;-147.20;79.91
55038;BME280;40937;53.594;10.034;2022-09-09T04:38:19;77466.78;;;-147.20;79.77
55038;BME280;40937;53.594;10.034;2022-09-09T04:40:49;77466.78;;;-147.20;79.76
55038;BME280;40937;53.594;10.034;2022-09-09T04:43:19;77462.75;;;-147.20;79.48
55038;BME280;40937;53.594;10.034;2022-09-09T04:45:47;77468.81;;;-147.20;79.20
55038;BME280;40937;53.594;10.034;2022-09-09T04:48:14;77468.81;;;-147.20;79.38
55038;BME280;40937;53.594;10.034;2022-09-09T04:50:42;77472.84;;;-147.20;79.47
55038;BME280;40937;53.594;10.034;2022-09-09T04:53:11;77478.91;;;-147.20;79.80
55038;BME280;40937;53.594;10.034;2022-09-09T04:55:38;77480.91;;;-147.20;79.67
55038;BME280;40937;53.594;10.034;2022-09-09T04:58:06;77484.97;;;-147.20;79.79
55038;BME280;40937;53.594;10.034;2022-09-09T05:00:35;77480.91;;;-147.20;79.86
55038;BME280;40937;53.594;10.034;2022-09-09T05:03:05;77478.91;;;-147.20;79.79
55038;BME280;40937;53.594;10.034;2022-09-09T05:05:34;77480.91;;;-147.20;79.50
55038;BME280;40937;53.594;10.034;2022-09-09T05:08:02;77486.97;;;-147.20;79.76
55038;BME280;40937;53.594;10.034;2022-09-09T05:10:29;77482.94;;;-147.20;79.66
55038;BME280;40937;53.594;10.034;2022-09-09T05:12:57;77489.00;;;-147.20;79.70
55038;BME280;40937;53.594;10.034;2022-09-09T05:15:27;77482.94;;;-147.20;79.52
55038;BME280;40937;53.594;10.034;2022-09-09T05:17:58;77486.97;;;-147.20;79.39
55038;BME280;40937;53.594;10.034;2022-09-09T05:20:27;77486.97;;;-147.20;79.56
55038;BME280;40937;53.594;10.034;2022-09-09T05:22:54;77493.03;;;-147.20;79.70
55038;BME280;40937;53.594;10.034;2022-09-09T05:25:22;77493.03;;;-147.20;79.85
55038;BME280;40937;53.594;10.034;2022-09-09T05:27:52;77486.97;;;-147.20;79.46
55038;BME280;40937;53.594;10.034;2022-09-09T05:30:20;77484.97;;;-147.20;79.61
55038;BME280;40937;53.594;10.034;2022-09-09T05:32:47;77486.97;;;-147.20;79.65
55038;BME280;40937;53.594;10.034;2022-09-09T05:35:16;77482.94;;;-147.20;79.72
55038;BME280;40937;53.594;10.034;2022-09-09T05:37:44;77486.97;;;-147.20;79.53
55038;BME280;40937;53.594;10.034;2022-09-09T05:40:12;77482.94;;;-147.20;79.48
55038;BME280;40937;53.594;10.034;2022-09-09T05:42:39;77489.00;;;-147.20;79.81
55038;BME280;40937;53.594;10.034;2022-09-09T05:45:07;77491.03;;;-147.20;79.98
55038;BME280;40937;53.594;10.034;2022-09-09T05:47:34;77491.03;;;-147.20;80.06
55038;BME280;40937;53.594;10.034;2022-09-09T05:50:05;77493.03;;;-147.20;80.04
55038;BME280;40937;53.594;10.034;2022-09-09T05:52:33;77491.03;;;-147.20;79.71
55038;BME280;40937;53.594;10.034;2022-09-09T05:55:00;77484.97;;;-147.20;79.74
55038;BME280;40937;53.594;10.034;2022-09-09T05:57:28;77489.00;;;-147.20;79.60
55038;BME280;40937;53.594;10.034;2022-09-09T05:59:54;77484.97;;;-147.20;79.76
55038;BME280;40937;53.594;10.034;2022-09-09T06:02:21;77480.91;;;-147.20;79.64
55038;BME280;40937;53.594;10.034;2022-09-09T06:04:48;77478.91;;;-147.20;79.59
55038;BME280;40937;53.594;10.034;2022-09-09T06:07:15;77480.91;;;-147.20;79.37
55038;BME280;40937;53.594;10.034;2022-09-09T06:09:44;77470.84;;;-147.20;79.12
55038;BME280;40937;53.594;10.034;2022-09-09T06:12:11;77478.91;;;-147.20;79.03
55038;BME280;40937;53.594;10.034;2022-09-09T06:14:38;77470.84;;;-147.20;78.81
55038;BME280;40937;53.594;10.034;2022-09-09T06:17:05;77472.84;;;-147.20;78.85
55038;BME280;40937;53.594;10.034;2022-09-09T06:19:32;77472.84;;;-147.20;78.95
55038;BME280;40937;53.594;10.034;2022-09-09T06:21:59;77472.84;;;-147.20;78.57
55038;BME280;40937;53.594;10.034;2022-09-09T06:24:27;77474.88;;;-147.20;78.41
55038;BME280;40937;53.594;10.034;2022-09-09T06:26:57;77470.84;;;-147.20;78.70
55038;BME280;40937;53.594;10.034;2022-09-09T06:29:28;77476.88;;;-147.20;78.98
55038;BME280;40937;53.594;10.034;2022-09-09T06:31:54;77466.78;;;-147.20;78.74
55038;BME280;40937;53.594;10.034;2022-09-09T06:34:24;77462.75;;;-147.20;78.58
55038;BME280;40937;53.594;10.034;2022-09-09T06:36:56;77462.75;;;-147.20;78.79
55038;BME280;40937;53.594;10.034;2022-09-09T06:39:24;77456.69;;;-147.20;78.94
55038;BME280;40937;53.594;10.034;2022-09-09T06:41:51;77462.75;;;-147.20;79.06
55038;BME280;40937;53.594;10.034;2022-09-09T06:44:46;77456.69;;;-147.20;78.98
55038;BME280;40937;53.594;10.034;2022-09-09T06:47:23;77452.66;;;-147.20;79.15
55038;BME280;40937;53.594;10.034;2022-09-09T06:49:50;77452.66;;;-147.20;79.42
55038;BME280;40937;53.594;10.034;2022-09-09T06:52:17;77458.72;;;-147.20;79.12
55038;BME280;40937;53.594;10.034;2022-09-09T06:54:45;77458.72;;;-147.20;79.00
55038;BME280;40937;53.594;10.034;2022-09-09T06:57:13;77452.66;;;-147.20;79.25
55038;BME280;40937;53.594;10.034;2022-09-09T06:59:40;77454.69;;;-147.20;79.16
55038;BME280;40937;53.594;10.034;2022-09-09T07:02:09;77450.63;;;-147.20;79.04
55038;BME280;40937;53.594;10.034;2022-09-09T07:04:35;77444.59;;;-147.20;79.22
55038;BME280;40937;53.594;10.034;2022-09-09T07:07:03;77438.53;;;-147.20;79.01
55038;BME280;40937;53.594;10.034;2022-09-09T07:09:30;77434.50;;;-147.20;79.03
55038;BME280;40937;53.594;10.034;2022-09-09T07:11:57;77430.47;;;-147.20;78.71
55038;BME280;40937;53.594;10.034;2022-09-09T07:14:25;77422.38;;;-147.20;78.96
55038;BME280;40937;53.594;10.034;2022-09-09T07:16:56;77422.38;;;-147.20;78.94
55038;BME280;40937;53.594;10.034;2022-09-09T07:19:24;77420.34;;;-147.20;78.74
55038;BME280;40937;53.594;10.034;2022-09-09T07:21:52;77414.31;;;-147.20;78.81
55038;BME280;40937;53.594;10.034;2022-09-09T07:24:21;77422.38;;;-147.20;78.47
55038;BME280;40937;53.594;10.034;2022-09-09T07:26:49;77418.34;;;-147.20;78.23
55038;BME280;40937;53.594;10.034;2022-09-09T07:29:17;77412.28;;;-147.20;77.91
55038;BME280;40937;53.594;10.034;2022-09-09T07:31:44;77410.25;;;-147.20;77.67
55038;BME280;40937;53.594;10.034;2022-09-09T07:34:15;77414.31;;;-147.20;77.77
55038;BME280;40937;53.594;10.034;2022-09-09T07:36:43;77412.28;;;-147.20;77.52
55038;BME280;40937;53.594;10.034;2022-09-09T07:39:13;77408.25;;;-147.20;77.42
55038;BME280;40937;53.594;10.034;2022-09-09T07:41:45;77402.19;;;-147.20;77.09
55038;BME280;40937;53.594;10.034;2022-09-09T07:44:15;77386.03;;;-147.20;77.06
55038;BME280;40937;53.594;10.034;2022-09-09T07:46:45;77386.03;;;-147.20;76.84
55038;BME280;40937;53.594;10.034;2022-09-09T07:49:17;77382.00;;;-147.20;77.28
55038;BME280;40937;53.594;10.034;2022-09-09T07:51:46;77379.97;;;-147.20;76.96
55038;BME280;40937;53.594;10.034;2022-09-09T07:54:17;77375.94;;;-147.20;76.28
55038;BME280;40937;53.594;10.034;2022-09-09T07:56:47;77375.94;;;-147.20;75.95
55038;BME280;40937;53.594;10.034;2022-09-09T07:59:15;77367.88;;;-147.20;76.07
55038;BME280;40937;53.594;10.034;2022-09-09T08:01:46;77363.84;;;-147.20;76.38
55038;BME280;40937;53.594;10.034;2022-09-09T08:04:18;77359.78;;;-147.20;76.31
55038;BME280;40937;53.594;10.034;2022-09-09T08:06:49;77363.84;;;-147.20;76.40
55038;BME280;40937;53.594;10.034;2022-09-09T08:09:18;77359.78;;;-147.20;76.25
55038;BME280;40937;53.594;10.034;2022-09-09T08:11:46;77357.78;;;-147.20;75.67
55038;BME280;40937;53.594;10.034;2022-09-09T08:14:14;77355.75;;;-147.20;75.89
55038;BME280;40937;53.594;10.034;2022-09-09T08:16:43;77355.75;;;-147.20;75.47
55038;BME280;40937;53.594;10.034;2022-09-09T08:19:13;77353.75;;;-147.20;75.16
55038;BME280;40937;53.594;10.034;2022-09-09T08:21:41;77343.66;;;-147.20;74.87
55038;BME280;40937;53.594;10.034;2022-09-09T08:24:11;77341.63;;;-147.20;75.23
55038;BME280;40937;53.594;10.034;2022-09-09T08:26:50;77337.59;;;-147.20;75.02
55038;BME280;40937;53.594;10.034;2022-09-09T08:29:22;77333.56;;;-147.20;73.91
55038;BME280;40937;53.594;10.034;2022-09-09T08:31:52;77327.50;;;-147.20;73.80
55038;BME280;40937;53.594;10.034;2022-09-09T08:34:20;77317.41;;;-147.20;73.79
55038;BME280;40937;53.594;10.034;2022-09-09T08:36:50;77315.38;;;-147.20;74.25
55038;BME280;40937;53.594;10.034;2022-09-09T08:39:21;77313.38;;;-147.20;73.09
55038;BME280;40937;53.594;10.034;2022-09-09T08:42:03;77321.44;;;-147.20;72.55
55038;BME280;40937;53.594;10.034;2022-09-09T08:44:50;77313.38;;;-147.20;72.61
55038;BME280;40937;53.594;10.034;2022-09-09T08:47:28;77313.38;;;-147.20;73.22
55038;BME280;40937;53.594;10.034;2022-09-09T08:50:16;77311.34;;;-147.20;73.14
55038;BME280;40937;53.594;10.034;2022-09-09T08:52:53;77311.34;;;-147.20;73.76
55038;BME280;40937;53.594;10.034;2022-09-09T08:55:27;77309.31;;;-147.20;73.35
55038;BME280;40937;53.594;10.034;2022-09-09T08:57:58;77307.31;;;-147.20;73.42
55038;BME280;40937;53.594;10.034;2022-09-09T09:00:36;77301.25;;;-147.20;73.08
55038;BME280;40937;53.594;10.034;2022-09-09T09:03:15;77301.25;;;-147.20;73.21
55038;BME280;40937;53.594;10.034;2022-09-09T09:05:47;77301.25;;;-147.20;73.22
55038;BME280;40937;53.594;10.034;2022-09-09T09:08:22;77291.16;;;-147.20;73.41
55038;BME280;40937;53.594;10.034;2022-09-09T09:10:55;77287.13;;;-147.20;72.89
55038;BME280;40937;53.594;10.034;2022-09-09T09:13:30;77281.06;;;-147.20;72.82
55038;BME280;40937;53.594;10.034;2022-09-09T09:16:09;77279.03;;;-147.20;72.88
55038;BME280;40937;53.594;10.034;2022-09-09T09:18:40;77268.94;;;-147.20;72.37
55038;BME280;40937;53.594;10.034;2022-09-09T09:21:12;77264.91;;;-147.20;71.67
55038;BME280;40937;53.594;10.034;2022-09-09T09:23:50;77260.88;;;-147.20;71.89
55038;BME280;40937;53.594;10.034;2022-09-09T09:26:23;77250.78;;;-147.20;71.88
55038;BME280;40937;53.594;10.034;2022-09-09T09:28:53;77248.75;;;-147.20;71.33
55038;BME280;40937;53.594;10.034;2022-09-09T09:31:22;77242.72;;;-147.20;70.50
55038;BME280;40937;53.594;10.034;2022-09-09T09:33:53;77236.66;;;-147.20;69.87
55038;BME280;40937;53.594;10.034;2022-09-09T09:36:33;77236.66;;;-147.20;68.81
55038;BME280;40937;53.594;10.034;2022-09-09T09:39:02;77230.59;;;-147.20;68.96
55038;BME280;40937;53.594;10.034;2022-09-09T09:41:36;77224.53;;;-147.20;68.80
55038;BME280;40937;53.594;10.034;2022-09-09T09:44:05;77218.50;;;-147.20;68.34
55038;BME280;40937;53.594;10.034;2022-09-09T09:46:32;77218.50;;;-147.20;68.02
55038;BME280;40937;53.594;10.034;2022-09-09T09:49:09;77208.41;;;-147.20;67.87
55038;BME280;40937;53.594;10.034;2022-09-09T09:51:37;77206.38;;;-147.20;67.79
55038;BME280;40937;53.594;10.034;2022-09-09T09:54:09;77200.31;;;-147.20;66.60
55038;BME280;40937;53.594;10.034;2022-09-09T09:56:46;77198.31;;;-147.20;66.10
55038;BME280;40937;53.594;10.034;2022-09-09T09:59:20;77202.34;;;-147.20;64.89
55038;BME280;40937;53.594;10.034;2022-09-09T10:01:47;77194.25;;;-147.20;65.05
55038;BME280;40937;53.594;10.034;2022-09-09T10:04:16;77184.16;;;-147.20;64.92
55038;BME280;40937;53.594;10.034;2022-09-09T10:06:46;77182.16;;;-147.20;64.59
55038;BME280;40937;53.594;10.034;2022-09-09T10:09:22;77176.09;;;-147.20;64.05
55038;BME280;40937;53.594;10.034;2022-09-09T10:11:55;77168.03;;;-147.20;64.00
55038;BME280;40937;53.594;10.034;2022-09-09T10:14:30;77170.03;;;-147.20;63.86
55038;BME280;40937;53.594;10.034;2022-09-09T10:17:10;77155.91;;;-147.20;63.51
55038;BME280;40937;53.594;10.034;2022-09-09T10:19:45;77145.81;;;-147.20;63.78
55038;BME280;40937;53.594;10.034;2022-09-09T10:22:25;77133.69;;;-147.20;63.45
55038;BME280;40937;53.594;10.034;2022-09-09T10:25:10;77127.66;;;-147.20;63.44
55038;BME280;40937;53.594;10.034;2022-09-09T10:27:51;77117.56;;;-147.20;63.28
55038;BME280;40937;53.594;10.034;2022-09-09T10:30:24;77105.44;;;-147.20;63.12
55038;BME280;40937;53.594;10.034;2022-09-09T10:32:59;77103.41;;;-147.20;62.93
55038;BME280;40937;53.594;10.034;2022-09-09T10:35:33;77099.38;;;-147.20;63.16
55038;BME280;40937;53.594;10.034;2022-09-09T10:38:11;77099.38;;;-147.20;62.27
55038;BME280;40937;53.594;10.034;2022-09-09T10:40:43;77095.34;;;-147.20;61.90
55038;BME280;40937;53.594;10.034;2022-09-09T10:43:26;77085.25;;;-147.20;61.73
55038;BME280;40937;53.594;10.034;2022-09-09T10:46:01;77087.28;;;-147.20;61.95
55038;BME280;40937;53.594;10.034;2022-09-09T10:48:45;77071.13;;;-147.20;61.18
55038;BME280;40937;53.594;10.034;2022-09-09T10:51:23;77063.06;;;-147.20;61.07
55038;BME280;40937;53.594;10.034;2022-09-09T10:54:01;77059.00;;;-147.20;60.74
55038;BME280;40937;53.594;10.034;2022-09-09T10:56:32;77048.91;;;-147.20;59.84
55038;BME280;40937;53.594;10.034;2022-09-09T10:59:04;77046.91;;;-147.20;59.69
55038;BME280;40937;53.594;10.034;2022-09-09T11:01:37;77040.84;;;-147.20;59.28
55038;BME280;40937;53.594;10.034;2022-09-09T11:04:12;77038.81;;;-147.20;59.09
55038;BME280;40937;53.594;10.034;2022-09-09T11:06:45;77032.78;;;-147.20;58.52
55038;BME280;40937;53.594;10.034;2022-09-09T11:09:17;77038.81;;;-147.20;58.38
55038;BME280;40937;53.594;10.034;2022-09-09T11:11:51;77028.72;;;-147.20;58.30
55038;BME280;40937;53.594;10.034;2022-09-09T11:14:26;77026.72;;;-147.20;58.15
55038;BME280;40937;53.594;10.034;2022-09-09T11:16:57;77024.69;;;-147.20;58.10
55038;BME280;40937;53.594;10.034;2022-09-09T11:19:30;77022.69;;;-147.20;58.08
55038;BME280;40937;53.594;10.034;2022-09-09T11:22:01;77014.59;;;-147.20;58.43
55038;BME280;40937;53.594;10.034;2022-09-09T11:24:32;77002.50;;;-147.20;58.35
55038;BME280;40937;53.594;10.034;2022-09-09T11:27:06;76992.41;;;-147.20;58.08
55038;BME280;40937;53.594;10.034;2022-09-09T11:29:49;76980.28;;;-147.20;57.93
55038;BME280;40937;53.594;10.034;2022-09-09T11:32:34;76974.22;;;-147.20;58.15
55038;BME280;40937;53.594;10.034;2022-09-09T11:35:19;76972.22;;;-147.20;58.83
55038;BME280;40937;53.594;10.034;2022-09-09T11:38:08;76962.13;;;-147.20;58.94
55038;BME280;40937;53.594;10.034;2022-09-09T11:40:38;76962.13;;;-147.20;57.94
55038;BME280;40937;53.594;10.034;2022-09-09T11:43:09;76960.09;;;-147.20;57.89
55038;BME280;40937;53.594;10.034;2022-09-09T11:45:40;76958.09;;;-147.20;58.19
55038;BME280;40937;53.594;10.034;2022-09-09T11:48:22;76962.13;;;-147.20;57.91
55038;BME280;40937;53.594;10.034;2022-09-09T11:50:58;76958.09;;;-147.20;58.05
55038;BME280;40937;53.594;10.034;2022-09-09T11:53:25;76962.13;;;-147.20;58.20
55038;BME280;40937;53.594;10.034;2022-09-09T12:02:27;76952.03;;;-147.20;58.50
55038;BME280;40937;53.594;10.034;2022-09-09T12:05:13;76939.91;;;-147.20;58.43
55038;BME280;40937;53.594;10.034;2022-09-09T12:08:01;76919.72;;;-147.20;58.09
55038;BME280;40937;53.594;10.034;2022-09-09T12:10:58;76901.56;;;-147.20;58.10
55038;BME280;40937;53.594;10.034;2022-09-09T12:14:02;76903.59;;;-147.20;57.53
55038;BME280;40937;53.594;10.034;2022-09-09T12:16:36;76901.56;;;-147.20;57.42
55038;BME280;40937;53.594;10.034;2022-09-09T12:19:15;76905.59;;;-147.20;57.69
55038;BME280;40937;53.594;10.034;2022-09-09T12:22:01;76909.63;;;-147.20;57.96
55038;BME280;40937;53.594;10.034;2022-09-09T12:24:54;76909.63;;;-147.20;57.44
55038;BME280;40937;53.594;10.034;2022-09-09T12:27:58;76923.75;;;-147.20;57.52
55038;BME280;40937;53.594;10.034;2022-09-09T12:30:49;76929.81;;;-147.20;57.16
55038;BME280;40937;53.594;10.034;2022-09-09T12:34:02;76925.78;;;-147.20;58.17
55038;BME280;40937;53.594;10.034;2022-09-09T12:37:04;76935.88;;;-147.20;59.80
55038;BME280;40937;53.594;10.034;2022-09-09T13:14:02;76964.13;;;-147.20;61.21
55038;BME280;40937;53.594;10.034;2022-09-09T13:16:32;76962.13;;;-147.20;61.29
55038;BME280;40937;53.594;10.034;2022-09-09T14:11:06;77121.59;;;-147.20;69.44
55038;BME280;40937;53.594;10.034;2022-09-09T14:43:20;77145.81;;;-147.20;71.21
55038;BME280;40937;53.594;10.034;2022-09-09T14:49:10;77155.91;;;-147.20;72.11
55038;BME280;40937;53.594;10.034;2022-09-09T15:06:57;77188.22;;;-147.20;70.19
55038;BME280;40937;53.594;10.034;2022-09-09T15:09:24;77194.25;;;-147.20;70.70
55038;BME280;40937;53.594;10.034;2022-09-09T15:11:51;77196.28;;;-147.20;71.36
55038;BME280;40937;53.594;10.034;2022-09-09T15:14:30;77200.31;;;-147.20;72.01
55038;BME280;40937;53.594;10.034;2022-09-09T15:17:03;77198.31;;;-147.20;72.54
55038;BME280;40937;53.594;10.034;2022-09-09T15:19:29;77200.31;;;-147.20;72.73